createdAt,value
2023-10-23T00:02:20.530Z,6.80
2023-10-23T00:04:50.155Z,8.67
2023-10-23T00:07:18.871Z,6.20
2023-10-23T00:09:47.114Z,6.47
2023-10-23T00:12:15.353Z,7.13
2023-10-23T00:14:43.564Z,5.73
2023-10-23T00:17:11.706Z,6.07
2023-10-23T00:19:39.831Z,7.53
2023-10-23T00:22:09.448Z,9.27
2023-10-23T00:24:37.778Z,8.40
2023-10-23T00:27:06.613Z,5.63
2023-10-23T00:29:34.882Z,5.87
2023-10-23T00:32:02.956Z,6.27
2023-10-23T00:34:31.162Z,6.77
2023-10-23T00:36:59.423Z,7.80
2023-10-23T00:39:28.916Z,6.87
2023-10-23T00:41:57.034Z,6.27
2023-10-23T00:44:25.161Z,5.03
2023-10-23T00:46:53.356Z,9.00
2023-10-23T00:49:21.738Z,5.90
2023-10-23T00:51:50.302Z,5.30
2023-10-23T00:54:19.341Z,10.70
2023-10-23T00:56:50.467Z,8.30
2023-10-23T00:59:18.766Z,5.80
2023-10-23T01:01:47.419Z,7.33
2023-10-23T01:04:15.739Z,6.00
2023-10-23T01:06:43.947Z,7.83
2023-10-23T01:09:12.196Z,5.87
2023-10-23T01:11:40.356Z,9.60
2023-10-23T01:14:09.852Z,6.60
2023-10-23T01:16:38.175Z,8.30
2023-10-23T01:19:07.082Z,9.20
2023-10-23T01:21:35.247Z,7.80
2023-10-23T01:24:06.699Z,6.30
2023-10-23T01:26:36.174Z,6.57
2023-10-23T01:29:04.465Z,5.43
2023-10-23T01:31:32.707Z,11.27
2023-10-23T01:34:00.916Z,6.30
2023-10-23T01:36:29.402Z,8.33
2023-10-23T01:38:57.740Z,8.13
2023-10-23T01:41:26.037Z,6.93
2023-10-23T01:43:55.563Z,6.93
2023-10-23T01:46:23.743Z,9.97
2023-10-23T01:48:52.003Z,8.47
2023-10-23T01:51:20.295Z,4.93
2023-10-23T01:53:48.432Z,4.13
2023-10-23T01:56:16.537Z,8.23
2023-10-23T01:58:44.729Z,7.87
2023-10-23T02:01:23.322Z,7.60
2023-10-23T02:03:52.447Z,5.83
2023-10-23T02:06:20.997Z,5.80
2023-10-23T02:08:49.143Z,6.47
2023-10-23T02:11:17.241Z,6.80
2023-10-23T02:13:45.456Z,7.37
2023-10-23T02:16:13.633Z,7.37
2023-10-23T02:18:43.470Z,3.53
2023-10-23T02:21:11.637Z,6.87
2023-10-23T02:23:53.020Z,9.30
2023-10-23T02:26:22.518Z,7.87
2023-10-23T02:28:50.733Z,7.77
2023-10-23T02:31:18.963Z,6.13
2023-10-23T02:33:48.611Z,7.27
2023-10-23T02:36:16.921Z,7.63
2023-10-23T02:38:45.202Z,8.27
2023-10-23T02:41:13.378Z,6.63
2023-10-23T02:43:41.548Z,6.63
2023-10-23T02:46:10.925Z,8.47
2023-10-23T02:48:39.691Z,6.90
2023-10-23T02:51:09.379Z,10.90
2023-10-23T02:53:38.065Z,5.87
2023-10-23T02:56:11.684Z,8.67
2023-10-23T02:58:40.172Z,6.27
2023-10-23T03:01:16.990Z,6.67
2023-10-23T03:03:45.733Z,7.20
2023-10-23T03:06:15.542Z,8.20
2023-10-23T03:08:43.944Z,6.27
2023-10-23T03:11:12.937Z,7.80
2023-10-23T03:13:41.248Z,6.63
2023-10-23T03:16:09.607Z,7.03
2023-10-23T03:18:37.898Z,7.10
2023-10-23T03:21:06.039Z,9.03
2023-10-23T03:23:37.049Z,7.17
2023-10-23T03:26:05.497Z,8.03
2023-10-23T03:28:33.588Z,7.83
2023-10-23T03:31:04.456Z,7.90
2023-10-23T03:33:33.796Z,8.77
2023-10-23T03:36:02.261Z,8.57
2023-10-23T03:38:30.482Z,7.77
2023-10-23T03:41:01.454Z,7.73
2023-10-23T03:43:34.173Z,7.03
2023-10-23T03:46:05.533Z,4.07
2023-10-23T03:48:36.550Z,11.27
2023-10-23T03:51:05.351Z,5.40
2023-10-23T03:53:33.512Z,5.97
2023-10-23T03:56:06.162Z,8.30
2023-10-23T03:58:34.388Z,9.33
2023-10-23T04:01:02.785Z,8.00
2023-10-23T04:03:31.140Z,7.47
2023-10-23T04:05:59.285Z,7.63
2023-10-23T04:08:27.424Z,7.57
2023-10-23T04:10:55.561Z,6.73
2023-10-23T04:13:25.508Z,6.03
2023-10-23T04:15:58.443Z,4.07
2023-10-23T04:18:27.225Z,6.83
2023-10-23T04:21:04.707Z,4.73
2023-10-23T04:23:32.998Z,7.03
2023-10-23T04:26:01.568Z,8.17
2023-10-23T04:28:31.347Z,6.97
2023-10-23T04:31:00.112Z,6.47
2023-10-23T04:33:28.759Z,5.80
2023-10-23T04:35:58.479Z,5.27
2023-10-23T04:38:26.980Z,6.93
2023-10-23T04:40:55.596Z,7.03
2023-10-23T04:43:24.290Z,4.37
2023-10-23T04:45:54.927Z,4.83
2023-10-23T04:48:23.193Z,7.70
2023-10-23T04:50:51.354Z,6.13
2023-10-23T04:53:20.852Z,6.47
2023-10-23T04:55:49.028Z,6.93
2023-10-23T04:58:17.304Z,5.13
2023-10-23T05:00:46.246Z,5.07
2023-10-23T05:03:15.777Z,7.67
2023-10-23T05:05:48.234Z,6.50
2023-10-23T05:08:16.525Z,6.70
2023-10-23T05:10:44.710Z,6.73
2023-10-23T05:13:12.978Z,8.77
2023-10-23T05:15:41.239Z,6.97
2023-10-23T05:18:09.534Z,6.27
2023-10-23T05:20:39.013Z,5.47
2023-10-23T05:23:07.236Z,5.30
2023-10-23T05:25:38.101Z,6.80
2023-10-23T05:28:06.652Z,7.43
2023-10-23T05:30:35.048Z,8.60
2023-10-23T05:33:04.521Z,7.33
2023-10-23T05:35:32.967Z,6.47
2023-10-23T05:38:02.520Z,6.53
2023-10-23T05:40:30.695Z,6.03
2023-10-23T05:42:58.845Z,7.70
2023-10-23T05:45:27.105Z,6.10
2023-10-23T05:47:55.375Z,7.10
2023-10-23T05:50:23.600Z,4.93
2023-10-23T05:52:51.979Z,6.17
2023-10-23T05:55:22.198Z,5.77
2023-10-23T05:57:50.536Z,5.83
2023-10-23T06:00:19.691Z,9.07
2023-10-23T06:02:47.812Z,6.30
2023-10-23T06:05:16.222Z,8.87
2023-10-23T06:07:44.461Z,5.53
2023-10-23T06:10:12.698Z,5.13
2023-10-23T06:12:42.225Z,6.50
2023-10-23T06:15:11.558Z,5.03
2023-10-23T06:17:39.905Z,6.93
2023-10-23T06:20:11.629Z,7.57
2023-10-23T06:22:39.736Z,5.60
2023-10-23T06:25:09.211Z,4.37
2023-10-23T06:27:37.719Z,7.07
2023-10-23T06:30:08.720Z,8.17
2023-10-23T06:32:37.472Z,4.53
2023-10-23T06:35:06.416Z,3.83
2023-10-23T06:37:34.768Z,6.43
2023-10-23T06:40:03.220Z,7.37
2023-10-23T06:42:31.465Z,6.53
2023-10-23T06:45:02.601Z,5.23
2023-10-23T06:47:32.160Z,6.93
2023-10-23T06:50:01.244Z,8.70
2023-10-23T06:52:29.478Z,4.17
2023-10-23T06:54:57.572Z,8.60
2023-10-23T06:57:25.913Z,5.20
2023-10-23T06:59:55.490Z,9.17
2023-10-23T07:02:23.814Z,6.60
2023-10-23T07:04:53.649Z,5.80
2023-10-23T07:07:29.242Z,6.10
2023-10-23T07:10:00.916Z,5.27
2023-10-23T07:12:29.372Z,5.17
2023-10-23T07:14:57.806Z,5.60
2023-10-23T07:17:26.036Z,7.40
2023-10-23T07:19:55.841Z,4.87
2023-10-23T07:22:23.973Z,4.77
2023-10-23T07:24:52.171Z,6.90
2023-10-23T07:27:20.322Z,5.27
2023-10-23T07:29:48.957Z,7.30
2023-10-23T07:32:17.105Z,6.00
2023-10-23T07:34:45.295Z,7.53
2023-10-23T07:37:19.169Z,7.37
2023-10-23T07:39:49.029Z,6.10
2023-10-23T07:42:17.349Z,9.83
2023-10-23T07:44:45.510Z,9.73
2023-10-23T07:47:14.557Z,5.40
2023-10-23T07:49:42.757Z,7.10
2023-10-23T07:52:10.939Z,5.40
2023-10-23T07:54:40.550Z,5.77
2023-10-23T07:57:08.692Z,6.23
2023-10-23T07:59:37.182Z,7.97
2023-10-23T08:02:06.014Z,7.23
2023-10-23T08:04:34.295Z,3.90
2023-10-23T08:07:02.664Z,7.40
2023-10-23T08:09:30.902Z,6.67
2023-10-23T08:12:00.620Z,6.03
2023-10-23T08:14:28.759Z,7.57
2023-10-23T08:16:57.076Z,6.33
2023-10-23T08:19:25.512Z,5.47
2023-10-23T08:21:53.766Z,7.73
2023-10-23T08:24:22.059Z,4.50
2023-10-23T08:26:50.237Z,7.83
2023-10-23T08:29:19.783Z,6.50
2023-10-23T08:31:47.990Z,4.70
2023-10-23T08:34:16.348Z,6.80
2023-10-23T08:36:44.747Z,9.20
2023-10-23T08:39:12.964Z,8.20
2023-10-23T08:41:42.903Z,6.50
2023-10-23T08:44:11.825Z,5.53
2023-10-23T08:46:42.213Z,8.17
2023-10-23T08:49:11.457Z,5.63
2023-10-23T08:51:42.644Z,6.10
2023-10-23T08:54:17.427Z,7.00
2023-10-23T08:56:46.277Z,8.27
2023-10-23T08:59:15.532Z,10.47
2023-10-23T09:01:45.361Z,5.73
2023-10-23T09:04:14.154Z,8.70
2023-10-23T09:06:43.516Z,7.10
2023-10-23T09:09:13.046Z,6.40
2023-10-23T09:11:44.610Z,4.57
2023-10-23T09:14:13.929Z,4.13
2023-10-23T09:16:42.337Z,6.67
2023-10-23T09:19:26.287Z,4.90
2023-10-23T09:21:56.521Z,5.77
2023-10-23T09:24:27.220Z,5.00
2023-10-23T09:26:55.553Z,6.37
2023-10-23T09:29:24.659Z,5.33
2023-10-23T09:31:53.218Z,5.33
2023-10-23T09:34:23.618Z,6.20
2023-10-23T09:36:53.287Z,5.63
2023-10-23T09:39:22.645Z,6.07
2023-10-23T09:41:51.239Z,4.00
2023-10-23T09:44:19.737Z,4.83
2023-10-23T09:46:49.858Z,5.90
2023-10-23T09:49:21.943Z,6.73
2023-10-23T09:51:52.700Z,6.30
2023-10-23T09:54:22.117Z,3.73
2023-10-23T09:56:52.222Z,5.33
2023-10-23T09:59:23.920Z,5.70
2023-10-23T10:01:52.668Z,6.20
2023-10-23T10:04:28.147Z,6.80
2023-10-23T10:07:02.838Z,5.83
2023-10-23T10:09:32.300Z,9.77
2023-10-23T10:12:02.226Z,7.90
2023-10-23T10:14:31.040Z,9.03
2023-10-23T10:17:00.994Z,5.50
2023-10-23T10:19:29.449Z,6.60
2023-10-23T10:22:06.693Z,7.07
2023-10-23T10:24:36.314Z,4.10
2023-10-23T10:27:05.802Z,5.47
2023-10-23T10:29:34.393Z,5.77
2023-10-23T10:32:10.870Z,5.67
2023-10-23T10:34:55.632Z,6.53
2023-10-23T10:37:29.158Z,6.70
2023-10-23T10:40:07.790Z,6.37
2023-10-23T10:42:41.781Z,7.37
2023-10-23T10:45:19.624Z,5.33
2023-10-23T10:47:50.942Z,6.63
2023-10-23T10:50:37.168Z,5.83
2023-10-23T10:53:09.098Z,7.03
2023-10-23T10:55:38.832Z,7.87
2023-10-23T10:58:07.893Z,4.40
2023-10-23T11:00:39.257Z,9.53
2023-10-23T11:03:08.731Z,8.80
2023-10-23T11:05:39.462Z,7.50
2023-10-23T11:08:09.014Z,6.20
2023-10-23T11:10:37.119Z,6.80
2023-10-23T11:13:08.882Z,8.83
2023-10-23T11:15:36.976Z,9.97
2023-10-23T11:18:06.244Z,8.23
2023-10-23T11:20:34.781Z,10.63
2023-10-23T11:23:02.995Z,7.13
2023-10-23T11:25:33.884Z,7.13
2023-10-23T11:28:06.425Z,7.93
2023-10-23T11:30:45.771Z,8.17
2023-10-23T11:33:14.105Z,6.77
2023-10-23T11:35:43.638Z,7.17
2023-10-23T11:38:15.627Z,7.40
2023-10-23T11:40:46.389Z,11.40
2023-10-23T11:43:17.076Z,9.80
2023-10-23T11:45:48.320Z,7.57
2023-10-23T11:48:16.902Z,7.60
2023-10-23T11:50:45.217Z,7.83
2023-10-23T11:53:17.227Z,8.20
2023-10-23T11:55:47.940Z,6.67
2023-10-23T11:58:16.564Z,9.93
2023-10-23T12:00:45.654Z,9.00
2023-10-23T12:03:13.955Z,7.47
2023-10-23T12:05:42.161Z,5.63
2023-10-23T12:08:10.433Z,7.73
2023-10-23T12:10:39.653Z,8.73
2023-10-23T12:13:09.310Z,7.00
2023-10-23T12:15:37.747Z,8.73
2023-10-23T12:18:07.035Z,7.37
2023-10-23T12:20:35.275Z,7.37
2023-10-23T12:23:03.453Z,8.37
2023-10-23T12:25:31.672Z,7.20
2023-10-23T12:28:00.177Z,7.13
2023-10-23T12:30:29.759Z,7.70
2023-10-23T12:33:14.679Z,5.37
2023-10-23T12:35:46.443Z,7.10
2023-10-23T12:38:14.918Z,5.13
2023-10-23T12:40:44.747Z,7.77
2023-10-23T12:43:13.282Z,6.90
2023-10-23T12:45:44.082Z,7.00
2023-10-23T12:48:12.312Z,4.60
2023-10-23T12:50:41.020Z,5.87
2023-10-23T12:53:10.797Z,5.67
2023-10-23T12:55:40.106Z,5.10
2023-10-23T12:58:08.738Z,7.77
2023-10-23T13:00:37.519Z,5.47
2023-10-23T13:03:07.929Z,7.73
2023-10-23T13:05:36.211Z,8.67
2023-10-23T13:08:04.546Z,7.37
2023-10-23T13:10:32.880Z,9.13
2023-10-23T13:13:03.471Z,3.93
2023-10-23T13:15:32.220Z,5.00
2023-10-23T13:18:02.754Z,5.57
2023-10-23T13:21:29.019Z,6.03
2023-10-23T13:23:20.551Z,6.53
2023-10-23T13:25:58.062Z,7.10
2023-10-23T13:28:35.273Z,7.03
2023-10-23T13:31:04.181Z,4.27
2023-10-23T13:33:32.703Z,7.30
2023-10-23T13:36:02.642Z,3.53
2023-10-23T13:38:35.924Z,6.43
2023-10-23T13:41:06.649Z,6.90
2023-10-23T13:43:35.674Z,4.23
2023-10-23T13:46:04.064Z,5.63
2023-10-23T13:48:32.296Z,4.37
2023-10-23T13:51:01.985Z,4.47
2023-10-23T13:53:30.110Z,7.67
2023-10-23T13:55:58.426Z,5.13
2023-10-23T13:58:29.043Z,3.23
2023-10-23T14:00:58.693Z,3.30
2023-10-23T14:03:29.244Z,4.97
2023-10-23T14:05:57.720Z,4.20
2023-10-23T14:08:33.062Z,4.60
2023-10-23T14:11:57.896Z,6.47
2023-10-23T14:14:03.552Z,4.63
2023-10-23T14:16:31.748Z,3.20
2023-10-23T14:19:00.491Z,6.00
2023-10-23T14:21:28.791Z,4.83
2023-10-23T14:23:58.479Z,3.13
2023-10-23T14:26:27.290Z,4.57
2023-10-23T14:28:57.087Z,4.73
2023-10-23T14:31:25.401Z,5.37
2023-10-23T14:33:54.527Z,3.63
2023-10-23T14:36:23.834Z,4.93
2023-10-23T14:38:51.930Z,5.17
2023-10-23T14:41:21.588Z,5.33
2023-10-23T14:43:49.724Z,4.53
2023-10-23T14:46:18.396Z,4.77
2023-10-23T14:48:48.304Z,4.53
2023-10-23T14:51:17.048Z,4.20
2023-10-23T14:53:45.385Z,4.97
2023-10-23T14:56:14.686Z,6.53
2023-10-23T14:58:44.491Z,5.77
2023-10-23T15:01:13.519Z,3.67
2023-10-23T15:03:42.952Z,3.70
2023-10-23T15:06:12.119Z,5.60
2023-10-23T15:08:40.428Z,6.33
2023-10-23T15:11:12.998Z,5.30
2023-10-23T15:13:41.269Z,5.73
2023-10-23T15:16:10.945Z,6.27
2023-10-23T15:18:39.125Z,5.07
2023-10-23T15:21:08.468Z,6.73
2023-10-23T15:23:37.709Z,7.23
2023-10-23T15:26:06.623Z,7.67
2023-10-23T15:28:36.748Z,7.10
2023-10-23T15:31:07.350Z,8.80
2023-10-23T15:33:37.729Z,7.77
2023-10-23T15:36:07.708Z,11.30
2023-10-23T15:38:37.828Z,9.30
2023-10-23T15:41:07.996Z,10.07
2023-10-23T15:43:37.277Z,9.73
2023-10-23T15:46:06.331Z,7.77
2023-10-23T15:48:42.210Z,7.23
2023-10-23T15:51:10.859Z,9.00
2023-10-23T15:53:39.599Z,10.03
2023-10-23T15:56:08.843Z,10.10
2023-10-23T15:58:37.134Z,7.97
2023-10-23T16:01:06.423Z,9.40
2023-10-23T16:03:39.826Z,9.00
2023-10-23T16:06:10.405Z,9.03
2023-10-23T16:08:39.485Z,8.73
2023-10-23T16:11:08.877Z,11.40
2023-10-23T16:13:39.523Z,7.57
2023-10-23T16:16:16.829Z,10.00
2023-10-23T16:18:47.819Z,10.03
2023-10-23T16:21:17.156Z,11.67
2023-10-23T16:23:45.429Z,8.67
2023-10-23T16:26:13.584Z,10.57
2023-10-23T16:28:41.891Z,9.30
2023-10-23T16:31:15.110Z,9.20
2023-10-23T16:33:44.081Z,10.73
2023-10-23T16:36:13.725Z,8.10
2023-10-23T16:38:42.641Z,8.40
2023-10-23T16:41:10.996Z,8.30
2023-10-23T16:43:42.180Z,8.40
2023-10-23T16:46:12.911Z,8.30
2023-10-23T16:48:42.563Z,9.47
2023-10-23T16:51:11.070Z,8.53
2023-10-23T16:53:40.784Z,10.73
2023-10-23T16:56:09.335Z,5.93
2023-10-23T16:58:37.711Z,10.23
2023-10-23T17:01:07.733Z,7.47
2023-10-23T17:03:39.189Z,7.57
2023-10-23T17:06:08.503Z,5.70
2023-10-23T17:08:36.792Z,7.93
2023-10-23T17:11:08.906Z,7.83
2023-10-23T17:13:37.416Z,8.03
2023-10-23T17:16:06.296Z,8.50
2023-10-23T17:18:35.041Z,9.53
2023-10-23T17:21:03.602Z,8.57
2023-10-23T17:23:34.967Z,7.53
2023-10-23T17:26:03.576Z,7.50
2023-10-23T17:28:33.380Z,4.97
2023-10-23T17:31:02.366Z,10.53
2023-10-23T17:33:32.662Z,12.30
2023-10-23T17:36:01.286Z,10.20
2023-10-23T17:38:29.684Z,8.07
2023-10-23T17:40:59.789Z,9.73
2023-10-23T17:43:28.285Z,6.63
2023-10-23T17:46:02.911Z,7.60
2023-10-23T17:48:32.430Z,7.70
2023-10-23T17:51:04.863Z,6.70
2023-10-23T17:53:33.629Z,9.77
2023-10-23T17:56:02.006Z,8.53
2023-10-23T17:58:31.003Z,9.67
2023-10-23T18:01:00.836Z,10.20
2023-10-23T18:03:29.112Z,8.77
2023-10-23T18:05:58.536Z,10.43
2023-10-23T18:08:27.402Z,8.50
2023-10-23T18:10:58.090Z,10.50
2023-10-23T18:13:26.380Z,8.70
2023-10-23T18:15:55.008Z,8.33
2023-10-23T18:18:25.198Z,10.03
2023-10-23T18:20:53.433Z,8.53
2023-10-23T18:23:22.239Z,8.17
2023-10-23T18:25:50.477Z,11.97
2023-10-23T18:28:18.733Z,9.20
2023-10-23T18:30:48.683Z,11.20
2023-10-23T18:33:16.915Z,9.23
2023-10-23T18:35:46.657Z,11.07
2023-10-23T18:38:14.883Z,11.77
2023-10-23T18:40:43.212Z,8.13
2023-10-23T18:43:12.122Z,10.80
2023-10-23T18:45:44.356Z,10.60
2023-10-23T18:48:12.673Z,11.50
2023-10-23T18:50:41.068Z,10.10
2023-10-23T18:53:10.607Z,11.17
2023-10-23T18:55:41.172Z,15.07
2023-10-23T18:58:09.440Z,12.53
2023-10-23T19:00:37.708Z,10.70
2023-10-23T19:03:05.922Z,10.43
2023-10-23T19:05:37.151Z,8.30
2023-10-23T19:08:05.733Z,9.37
2023-10-23T19:10:35.282Z,9.40
2023-10-23T19:13:05.141Z,9.67
2023-10-23T19:15:34.260Z,10.70
2023-10-23T19:18:03.204Z,12.77
2023-10-23T19:20:32.038Z,14.53
2023-10-23T19:23:00.259Z,9.67
2023-10-23T19:25:31.055Z,11.17
2023-10-23T19:28:05.318Z,11.37
2023-10-23T19:30:34.219Z,11.60
2023-10-23T19:33:03.126Z,11.70
2023-10-23T19:35:32.599Z,12.57
2023-10-23T19:38:01.438Z,9.40
2023-10-23T19:40:30.352Z,11.17
2023-10-23T19:43:09.651Z,11.73
2023-10-23T19:45:38.422Z,11.63
2023-10-23T19:48:07.672Z,12.70
2023-10-23T19:50:36.575Z,11.50
2023-10-23T19:53:09.632Z,11.00
2023-10-23T19:55:43.214Z,14.03
2023-10-23T19:58:19.139Z,10.43
2023-10-23T20:00:47.447Z,10.83
2023-10-23T20:03:15.926Z,10.97
2023-10-23T20:05:44.431Z,12.17
2023-10-23T20:08:12.807Z,12.57
2023-10-23T20:10:41.273Z,9.10
2023-10-23T20:13:09.513Z,9.57
2023-10-23T20:15:39.230Z,11.23
2023-10-23T20:18:08.732Z,9.80
2023-10-23T20:20:39.527Z,8.13
2023-10-23T20:23:07.799Z,12.90
2023-10-23T20:25:36.495Z,11.73
2023-10-23T20:28:05.427Z,9.67
2023-10-23T20:30:35.072Z,8.13
2023-10-23T20:33:05.280Z,10.07
2023-10-23T20:35:33.495Z,11.03
2023-10-23T20:38:01.864Z,9.17
2023-10-23T20:40:30.122Z,15.63
2023-10-23T20:42:58.394Z,10.47
2023-10-23T20:45:26.927Z,12.77
2023-10-23T20:47:55.436Z,11.03
2023-10-23T20:50:25.672Z,12.77
2023-10-23T20:52:53.842Z,13.10
2023-10-23T20:55:22.271Z,9.33
2023-10-23T20:57:50.458Z,10.53
2023-10-23T21:00:19.245Z,10.80
2023-10-23T21:02:47.503Z,10.07
2023-10-23T21:05:16.906Z,11.70
2023-10-23T21:07:46.434Z,8.17
2023-10-23T21:10:15.081Z,9.97
2023-10-23T21:12:43.273Z,9.40
2023-10-23T21:15:11.885Z,12.77
2023-10-23T21:17:42.380Z,9.50
2023-10-23T21:20:11.707Z,9.47
2023-10-23T21:22:40.012Z,9.30
2023-10-23T21:25:15.039Z,9.77
2023-10-23T21:27:49.103Z,11.97
2023-10-23T21:30:17.331Z,7.53
2023-10-23T21:32:45.526Z,9.33
2023-10-23T21:35:13.704Z,8.07
2023-10-23T21:37:41.912Z,9.70
2023-10-23T21:40:18.664Z,7.17
2023-10-23T21:42:46.858Z,8.07
2023-10-23T21:45:15.068Z,8.17
2023-10-23T21:47:43.377Z,8.47
2023-10-23T21:50:12.106Z,7.50
2023-10-23T21:52:40.904Z,6.87
2023-10-23T21:55:19.126Z,6.80
2023-10-23T21:57:53.322Z,9.00
2023-10-23T22:00:28.879Z,8.00
2023-10-23T22:02:58.058Z,6.10
2023-10-23T22:05:26.673Z,6.20
2023-10-23T22:07:55.596Z,8.20
2023-10-23T22:10:26.949Z,9.03
2023-10-23T22:12:56.219Z,9.03
2023-10-23T22:15:24.673Z,6.57
2023-10-23T22:17:54.749Z,6.23
2023-10-23T22:20:23.307Z,6.80
2023-10-23T22:22:51.433Z,8.03
2023-10-23T22:25:19.756Z,5.57
2023-10-23T22:27:49.348Z,5.60
2023-10-23T22:30:17.584Z,6.83
2023-10-23T22:32:51.680Z,5.17
2023-10-23T22:35:25.472Z,4.33
2023-10-23T22:38:07.269Z,6.30
2023-10-23T22:40:38.275Z,5.73
2023-10-23T22:43:07.889Z,4.90
2023-10-23T22:45:44.321Z,4.83
2023-10-23T22:48:23.826Z,5.30
2023-10-23T22:50:52.835Z,4.20
2023-10-23T22:53:22.843Z,7.27
2023-10-23T22:55:54.703Z,4.77
2023-10-23T22:58:30.085Z,4.03
2023-10-23T23:00:58.880Z,8.83
2023-10-23T23:03:27.862Z,4.40
2023-10-23T23:06:02.692Z,3.63
2023-10-23T23:08:33.671Z,4.97
2023-10-23T23:11:02.394Z,5.37
2023-10-23T23:13:32.749Z,4.00
2023-10-23T23:16:05.979Z,4.00
2023-10-23T23:18:38.149Z,5.60
2023-10-23T23:21:09.549Z,2.40
2023-10-23T23:23:37.737Z,3.13
2023-10-23T23:26:06.416Z,3.20
2023-10-23T23:28:36.353Z,2.40
2023-10-23T23:31:04.493Z,1.90
2023-10-23T23:33:32.912Z,2.80
2023-10-23T23:36:02.737Z,2.10
2023-10-23T23:38:30.967Z,3.67
2023-10-23T23:40:59.184Z,4.03
2023-10-23T23:43:27.381Z,2.03
2023-10-23T23:45:57.461Z,3.03
2023-10-23T23:48:25.692Z,3.00
2023-10-23T23:50:53.827Z,2.20
2023-10-23T23:53:22.310Z,2.50
2023-10-23T23:55:50.529Z,2.17
2023-10-23T23:58:18.745Z,3.10
